sensor_id;sensor_type;location;lat;lon;timestamp;temperature;humidity
610;DHT22;292;48.800;9.216;2023-10-31T00:01:25;14.60;86.20
610;DHT22;292;48.800;9.216;2023-10-31T00:03:51;14.50;86.20
610;DHT22;292;48.800;9.216;2023-10-31T00:06:20;14.40;86.40
610;DHT22;292;48.800;9.216;2023-10-31T00:08:47;14.40;86.50
610;DHT22;292;48.800;9.216;2023-10-31T00:11:14;14.40;86.70
610;DHT22;292;48.800;9.216;2023-10-31T00:13:42;14.40;86.70
610;DHT22;292;48.800;9.216;2023-10-31T00:16:09;14.40;86.70
610;DHT22;292;48.800;9.216;2023-10-31T00:18:36;14.30;86.70
610;DHT22;292;48.800;9.216;2023-10-31T00:21:03;14.30;86.80
610;DHT22;292;48.800;9.216;2023-10-31T00:23:32;14.30;87.00
610;DHT22;292;48.800;9.216;2023-10-31T00:25:59;14.20;87.10
610;DHT22;292;48.800;9.216;2023-10-31T00:28:26;14.20;87.40
610;DHT22;292;48.800;9.216;2023-10-31T00:30:53;14.10;87.80
610;DHT22;292;48.800;9.216;2023-10-31T00:33:21;14.10;87.80
610;DHT22;292;48.800;9.216;2023-10-31T00:35:48;14.10;88.00
610;DHT22;292;48.800;9.216;2023-10-31T00:38:15;14.10;88.30
610;DHT22;292;48.800;9.216;2023-10-31T00:40:43;14.20;88.10
610;DHT22;292;48.800;9.216;2023-10-31T00:43:10;14.20;88.00
610;DHT22;292;48.800;9.216;2023-10-31T00:45:37;14.30;88.00
610;DHT22;292;48.800;9.216;2023-10-31T00:48:05;14.30;87.70
610;DHT22;292;48.800;9.216;2023-10-31T00:50:32;14.40;87.50
610;DHT22;292;48.800;9.216;2023-10-31T00:52:59;14.40;87.10
610;DHT22;292;48.800;9.216;2023-10-31T00:55:26;14.40;87.00
610;DHT22;292;48.800;9.216;2023-10-31T00:57:54;14.50;87.00
610;DHT22;292;48.800;9.216;2023-10-31T01:00:21;14.50;86.70
610;DHT22;292;48.800;9.216;2023-10-31T01:02:48;14.60;86.40
610;DHT22;292;48.800;9.216;2023-10-31T01:05:16;14.60;86.00
610;DHT22;292;48.800;9.216;2023-10-31T01:07:43;14.60;85.70
610;DHT22;292;48.800;9.216;2023-10-31T01:10:10;14.60;85.40
610;DHT22;292;48.800;9.216;2023-10-31T01:12:37;14.60;85.10
610;DHT22;292;48.800;9.216;2023-10-31T01:15:07;14.60;84.80
610;DHT22;292;48.800;9.216;2023-10-31T01:17:34;14.60;84.20
610;DHT22;292;48.800;9.216;2023-10-31T01:20:01;14.60;83.50
610;DHT22;292;48.800;9.216;2023-10-31T01:22:29;14.50;82.90
610;DHT22;292;48.800;9.216;2023-10-31T01:24:56;14.50;82.10
610;DHT22;292;48.800;9.216;2023-10-31T01:27:23;14.50;81.60
610;DHT22;292;48.800;9.216;2023-10-31T01:29:50;14.40;81.30
610;DHT22;292;48.800;9.216;2023-10-31T01:32:18;14.40;80.30
610;DHT22;292;48.800;9.216;2023-10-31T01:34:45;14.40;79.40
610;DHT22;292;48.800;9.216;2023-10-31T01:37:12;14.40;78.80
610;DHT22;292;48.800;9.216;2023-10-31T01:39:40;14.30;78.70
610;DHT22;292;48.800;9.216;2023-10-31T01:42:07;14.30;78.60
610;DHT22;292;48.800;9.216;2023-10-31T01:44:34;14.30;78.70
610;DHT22;292;48.800;9.216;2023-10-31T01:47:03;14.30;78.80
610;DHT22;292;48.800;9.216;2023-10-31T01:49:32;14.30;78.70
610;DHT22;292;48.800;9.216;2023-10-31T01:51:59;14.30;78.40
610;DHT22;292;48.800;9.216;2023-10-31T01:54:27;14.30;78.30
610;DHT22;292;48.800;9.216;2023-10-31T01:56:55;14.30;78.00
610;DHT22;292;48.800;9.216;2023-10-31T01:59:24;14.20;78.10
610;DHT22;292;48.800;9.216;2023-10-31T02:01:51;14.20;78.30
610;DHT22;292;48.800;9.216;2023-10-31T02:04:18;14.20;78.00
610;DHT22;292;48.800;9.216;2023-10-31T02:06:46;14.20;78.40
610;DHT22;292;48.800;9.216;2023-10-31T02:09:13;14.20;78.60
610;DHT22;292;48.800;9.216;2023-10-31T02:11:40;14.20;78.60
610;DHT22;292;48.800;9.216;2023-10-31T02:14:07;14.20;78.70
610;DHT22;292;48.800;9.216;2023-10-31T02:16:35;14.20;78.60
610;DHT22;292;48.800;9.216;2023-10-31T02:19:02;14.20;78.60
610;DHT22;292;48.800;9.216;2023-10-31T02:21:30;14.10;78.60
610;DHT22;292;48.800;9.216;2023-10-31T02:24:01;14.10;78.40
610;DHT22;292;48.800;9.216;2023-10-31T02:26:29;14.00;78.40
610;DHT22;292;48.800;9.216;2023-10-31T02:28:56;14.00;78.60
610;DHT22;292;48.800;9.216;2023-10-31T02:31:23;14.00;78.70
610;DHT22;292;48.800;9.216;2023-10-31T02:33:51;14.00;78.70
610;DHT22;292;48.800;9.216;2023-10-31T02:36:18;14.00;78.70
610;DHT22;292;48.800;9.216;2023-10-31T02:38:45;14.00;78.40
610;DHT22;292;48.800;9.216;2023-10-31T02:41:14;14.00;78.70
610;DHT22;292;48.800;9.216;2023-10-31T02:43:42;14.00;78.60
610;DHT22;292;48.800;9.216;2023-10-31T02:46:09;14.00;78.60
610;DHT22;292;48.800;9.216;2023-10-31T02:48:37;14.00;78.70
610;DHT22;292;48.800;9.216;2023-10-31T02:51:05;14.00;79.00
610;DHT22;292;48.800;9.216;2023-10-31T02:53:32;14.00;79.10
610;DHT22;292;48.800;9.216;2023-10-31T02:55:59;14.00;79.00
610;DHT22;292;48.800;9.216;2023-10-31T02:58:27;14.00;79.00
610;DHT22;292;48.800;9.216;2023-10-31T03:00:54;14.00;79.10
610;DHT22;292;48.800;9.216;2023-10-31T03:03:21;13.90;79.30
610;DHT22;292;48.800;9.216;2023-10-31T03:05:48;13.80;79.40
610;DHT22;292;48.800;9.216;2023-10-31T03:08:15;13.80;79.40
610;DHT22;292;48.800;9.216;2023-10-31T03:10:47;13.70;79.30
610;DHT22;292;48.800;9.216;2023-10-31T03:13:16;13.70;79.30
610;DHT22;292;48.800;9.216;2023-10-31T03:15:45;13.60;79.40
610;DHT22;292;48.800;9.216;2023-10-31T03:18:12;13.70;79.70
610;DHT22;292;48.800;9.216;2023-10-31T03:20:43;13.70;79.70
610;DHT22;292;48.800;9.216;2023-10-31T03:23:10;13.70;79.90
610;DHT22;292;48.800;9.216;2023-10-31T03:25:37;13.70;80.00
610;DHT22;292;48.800;9.216;2023-10-31T03:28:07;13.70;79.90
610;DHT22;292;48.800;9.216;2023-10-31T03:30:44;13.60;80.30
610;DHT22;292;48.800;9.216;2023-10-31T03:33:13;13.60;80.30
610;DHT22;292;48.800;9.216;2023-10-31T03:35:40;13.70;80.30
610;DHT22;292;48.800;9.216;2023-10-31T03:38:07;13.70;80.30
610;DHT22;292;48.800;9.216;2023-10-31T03:40:34;13.70;80.30
610;DHT22;292;48.800;9.216;2023-10-31T03:43:01;13.70;80.30
610;DHT22;292;48.800;9.216;2023-10-31T03:45:29;13.70;80.30
610;DHT22;292;48.800;9.216;2023-10-31T03:47:58;13.70;80.40
610;DHT22;292;48.800;9.216;2023-10-31T03:50:25;13.70;80.60
610;DHT22;292;48.800;9.216;2023-10-31T03:52:52;13.70;80.60
610;DHT22;292;48.800;9.216;2023-10-31T03:55:19;13.60;80.90
610;DHT22;292;48.800;9.216;2023-10-31T03:57:46;13.60;81.00
610;DHT22;292;48.800;9.216;2023-10-31T04:00:14;13.60;81.00
610;DHT22;292;48.800;9.216;2023-10-31T04:02:41;13.60;81.00
610;DHT22;292;48.800;9.216;2023-10-31T04:05:10;13.50;81.20
610;DHT22;292;48.800;9.216;2023-10-31T04:07:36;13.50;81.20
610;DHT22;292;48.800;9.216;2023-10-31T04:10:05;13.50;81.30
610;DHT22;292;48.800;9.216;2023-10-31T04:12:32;13.50;81.30
610;DHT22;292;48.800;9.216;2023-10-31T04:15:00;13.50;81.40
610;DHT22;292;48.800;9.216;2023-10-31T04:17:27;13.50;81.30
610;DHT22;292;48.800;9.216;2023-10-31T04:19:54;13.50;81.30
610;DHT22;292;48.800;9.216;2023-10-31T04:22:22;13.50;81.30
610;DHT22;292;48.800;9.216;2023-10-31T04:24:49;13.40;81.30
610;DHT22;292;48.800;9.216;2023-10-31T04:27:17;13.40;81.60
610;DHT22;292;48.800;9.216;2023-10-31T04:29:44;13.40;81.60
610;DHT22;292;48.800;9.216;2023-10-31T04:32:11;13.40;81.60
610;DHT22;292;48.800;9.216;2023-10-31T04:34:39;13.30;81.40
610;DHT22;292;48.800;9.216;2023-10-31T04:37:06;13.40;81.40
610;DHT22;292;48.800;9.216;2023-10-31T04:39:35;13.30;81.40
610;DHT22;292;48.800;9.216;2023-10-31T04:42:02;13.30;81.40
610;DHT22;292;48.800;9.216;2023-10-31T04:44:29;13.20;81.70
610;DHT22;292;48.800;9.216;2023-10-31T04:46:56;13.20;81.90
610;DHT22;292;48.800;9.216;2023-10-31T04:49:23;13.20;82.10
610;DHT22;292;48.800;9.216;2023-10-31T04:51:53;13.20;82.10
610;DHT22;292;48.800;9.216;2023-10-31T04:54:20;13.20;82.10
610;DHT22;292;48.800;9.216;2023-10-31T04:56:49;13.10;82.10
610;DHT22;292;48.800;9.216;2023-10-31T04:59:16;13.20;82.40
610;DHT22;292;48.800;9.216;2023-10-31T05:01:48;13.20;82.50
610;DHT22;292;48.800;9.216;2023-10-31T05:04:15;13.10;82.50
610;DHT22;292;48.800;9.216;2023-10-31T05:06:42;13.20;82.50
610;DHT22;292;48.800;9.216;2023-10-31T05:09:10;13.20;82.50
610;DHT22;292;48.800;9.216;2023-10-31T05:11:37;13.20;82.50
610;DHT22;292;48.800;9.216;2023-10-31T05:14:07;13.20;82.60
610;DHT22;292;48.800;9.216;2023-10-31T05:16:39;13.20;82.60
610;DHT22;292;48.800;9.216;2023-10-31T05:19:08;13.20;82.60
610;DHT22;292;48.800;9.216;2023-10-31T05:21:35;13.20;82.60
610;DHT22;292;48.800;9.216;2023-10-31T05:24:02;13.10;82.60
610;DHT22;292;48.800;9.216;2023-10-31T05:26:30;13.10;82.60
610;DHT22;292;48.800;9.216;2023-10-31T05:28:57;13.10;82.50
610;DHT22;292;48.800;9.216;2023-10-31T05:31:26;13.10;82.50
610;DHT22;292;48.800;9.216;2023-10-31T05:33:54;13.10;82.50
610;DHT22;292;48.800;9.216;2023-10-31T05:36:22;13.10;82.40
610;DHT22;292;48.800;9.216;2023-10-31T05:38:49;13.10;82.20
610;DHT22;292;48.800;9.216;2023-10-31T05:41:16;13.00;82.40
610;DHT22;292;48.800;9.216;2023-10-31T05:43:44;13.00;82.20
610;DHT22;292;48.800;9.216;2023-10-31T05:46:11;13.00;82.10
610;DHT22;292;48.800;9.216;2023-10-31T05:48:43;13.00;82.10
610;DHT22;292;48.800;9.216;2023-10-31T05:51:12;13.00;82.10
610;DHT22;292;48.800;9.216;2023-10-31T05:53:41;13.00;82.00
610;DHT22;292;48.800;9.216;2023-10-31T05:56:09;13.00;81.70
610;DHT22;292;48.800;9.216;2023-10-31T05:58:38;12.90;81.30
610;DHT22;292;48.800;9.216;2023-10-31T06:01:05;12.80;81.20
610;DHT22;292;48.800;9.216;2023-10-31T06:03:32;12.80;81.20
610;DHT22;292;48.800;9.216;2023-10-31T06:06:01;12.70;81.20
610;DHT22;292;48.800;9.216;2023-10-31T06:08:28;12.70;81.20
610;DHT22;292;48.800;9.216;2023-10-31T06:10:55;12.70;81.20
610;DHT22;292;48.800;9.216;2023-10-31T06:13:23;12.60;80.90
610;DHT22;292;48.800;9.216;2023-10-31T06:15:51;12.60;80.90
610;DHT22;292;48.800;9.216;2023-10-31T06:18:18;12.60;80.70
610;DHT22;292;48.800;9.216;2023-10-31T06:20:45;12.60;80.70
610;DHT22;292;48.800;9.216;2023-10-31T06:23:13;12.60;80.70
610;DHT22;292;48.800;9.216;2023-10-31T06:25:40;12.50;80.60
610;DHT22;292;48.800;9.216;2023-10-31T06:28:07;12.50;80.60
610;DHT22;292;48.800;9.216;2023-10-31T06:30:34;12.50;80.70
610;DHT22;292;48.800;9.216;2023-10-31T06:33:01;12.40;80.60
610;DHT22;292;48.800;9.216;2023-10-31T06:35:28;12.50;80.60
610;DHT22;292;48.800;9.216;2023-10-31T06:37:56;12.50;80.40
610;DHT22;292;48.800;9.216;2023-10-31T06:40:27;12.50;80.30
610;DHT22;292;48.800;9.216;2023-10-31T06:42:55;12.60;80.10
610;DHT22;292;48.800;9.216;2023-10-31T06:45:22;12.60;79.90
610;DHT22;292;48.800;9.216;2023-10-31T06:47:49;12.60;79.90
610;DHT22;292;48.800;9.216;2023-10-31T06:50:16;12.60;79.70
610;DHT22;292;48.800;9.216;2023-10-31T06:52:43;12.60;79.60
610;DHT22;292;48.800;9.216;2023-10-31T06:55:10;12.60;79.40
610;DHT22;292;48.800;9.216;2023-10-31T06:57:40;12.60;79.30
610;DHT22;292;48.800;9.216;2023-10-31T07:00:08;12.60;79.00
610;DHT22;292;48.800;9.216;2023-10-31T07:02:35;12.60;78.80
610;DHT22;292;48.800;9.216;2023-10-31T07:05:03;12.60;78.70
610;DHT22;292;48.800;9.216;2023-10-31T07:07:31;12.60;78.80
610;DHT22;292;48.800;9.216;2023-10-31T07:09:58;12.60;78.70
610;DHT22;292;48.800;9.216;2023-10-31T07:12:25;12.60;78.60
610;DHT22;292;48.800;9.216;2023-10-31T07:14:53;12.60;78.40
610;DHT22;292;48.800;9.216;2023-10-31T07:17:20;12.60;78.40
610;DHT22;292;48.800;9.216;2023-10-31T07:19:47;12.60;78.30
610;DHT22;292;48.800;9.216;2023-10-31T07:22:14;12.60;78.10
610;DHT22;292;48.800;9.216;2023-10-31T07:24:41;12.60;78.00
610;DHT22;292;48.800;9.216;2023-10-31T07:27:09;12.60;77.80
610;DHT22;292;48.800;9.216;2023-10-31T07:29:39;12.60;78.10
610;DHT22;292;48.800;9.216;2023-10-31T07:32:09;12.60;77.50
610;DHT22;292;48.800;9.216;2023-10-31T07:34:36;12.60;77.50
610;DHT22;292;48.800;9.216;2023-10-31T07:37:03;12.60;77.80
610;DHT22;292;48.800;9.216;2023-10-31T07:39:30;12.60;77.50
610;DHT22;292;48.800;9.216;2023-10-31T07:41:57;12.60;77.40
610;DHT22;292;48.800;9.216;2023-10-31T07:44:24;12.70;77.50
610;DHT22;292;48.800;9.216;2023-10-31T07:46:51;12.70;77.50
610;DHT22;292;48.800;9.216;2023-10-31T07:49:20;12.80;77.50
610;DHT22;292;48.800;9.216;2023-10-31T07:51:47;12.80;77.40
610;DHT22;292;48.800;9.216;2023-10-31T07:54:14;12.80;77.10
610;DHT22;292;48.800;9.216;2023-10-31T07:56:42;12.80;77.30
610;DHT22;292;48.800;9.216;2023-10-31T07:59:09;12.80;77.30
610;DHT22;292;48.800;9.216;2023-10-31T08:01:37;12.90;77.30
610;DHT22;292;48.800;9.216;2023-10-31T08:04:04;12.90;77.30
610;DHT22;292;48.800;9.216;2023-10-31T08:06:33;12.90;77.30
610;DHT22;292;48.800;9.216;2023-10-31T08:09:01;12.90;77.30
610;DHT22;292;48.800;9.216;2023-10-31T08:11:30;12.90;77.30
610;DHT22;292;48.800;9.216;2023-10-31T08:13:58;12.90;77.40
610;DHT22;292;48.800;9.216;2023-10-31T08:16:25;13.00;77.30
610;DHT22;292;48.800;9.216;2023-10-31T08:18:53;13.00;77.30
610;DHT22;292;48.800;9.216;2023-10-31T08:21:20;13.00;77.40
610;DHT22;292;48.800;9.216;2023-10-31T08:23:49;13.10;77.30
610;DHT22;292;48.800;9.216;2023-10-31T08:26:16;13.10;77.30
610;DHT22;292;48.800;9.216;2023-10-31T08:28:43;13.10;76.80
610;DHT22;292;48.800;9.216;2023-10-31T08:31:10;13.10;76.70
610;DHT22;292;48.800;9.216;2023-10-31T08:33:37;13.10;76.80
610;DHT22;292;48.800;9.216;2023-10-31T08:36:05;13.10;77.00
610;DHT22;292;48.800;9.216;2023-10-31T08:38:32;13.10;77.00
610;DHT22;292;48.800;9.216;2023-10-31T08:41:01;13.20;77.00
610;DHT22;292;48.800;9.216;2023-10-31T08:43:28;13.20;77.00
610;DHT22;292;48.800;9.216;2023-10-31T08:45:54;13.30;76.80
610;DHT22;292;48.800;9.216;2023-10-31T08:48:21;13.30;76.70
610;DHT22;292;48.800;9.216;2023-10-31T08:50:49;13.30;76.70
610;DHT22;292;48.800;9.216;2023-10-31T08:53:16;13.40;76.70
610;DHT22;292;48.800;9.216;2023-10-31T08:55:44;13.50;76.50
610;DHT22;292;48.800;9.216;2023-10-31T08:58:13;13.50;76.40
610;DHT22;292;48.800;9.216;2023-10-31T09:00:43;13.60;76.20
610;DHT22;292;48.800;9.216;2023-10-31T09:03:10;13.70;76.10
610;DHT22;292;48.800;9.216;2023-10-31T09:05:37;13.70;76.00
610;DHT22;292;48.800;9.216;2023-10-31T09:08:04;13.80;76.00
610;DHT22;292;48.800;9.216;2023-10-31T09:10:32;13.90;75.80
610;DHT22;292;48.800;9.216;2023-10-31T09:12:59;14.00;75.70
610;DHT22;292;48.800;9.216;2023-10-31T09:15:27;14.00;74.70
610;DHT22;292;48.800;9.216;2023-10-31T09:17:54;14.10;74.20
610;DHT22;292;48.800;9.216;2023-10-31T09:20:21;14.10;73.80
610;DHT22;292;48.800;9.216;2023-10-31T09:22:48;14.20;73.80
610;DHT22;292;48.800;9.216;2023-10-31T09:25:15;14.20;73.10
610;DHT22;292;48.800;9.216;2023-10-31T09:27:42;14.20;72.80
610;DHT22;292;48.800;9.216;2023-10-31T09:30:10;14.30;73.10
610;DHT22;292;48.800;9.216;2023-10-31T09:32:39;14.40;72.90
610;DHT22;292;48.800;9.216;2023-10-31T09:35:06;14.50;72.90
610;DHT22;292;48.800;9.216;2023-10-31T09:37:33;14.60;71.30
610;DHT22;292;48.800;9.216;2023-10-31T09:40:00;14.60;71.20
610;DHT22;292;48.800;9.216;2023-10-31T09:42:28;14.60;71.10
610;DHT22;292;48.800;9.216;2023-10-31T09:44:55;14.60;71.10
610;DHT22;292;48.800;9.216;2023-10-31T09:47:22;14.70;71.20
610;DHT22;292;48.800;9.216;2023-10-31T09:49:51;14.80;71.20
610;DHT22;292;48.800;9.216;2023-10-31T09:52:18;14.90;71.20
610;DHT22;292;48.800;9.216;2023-10-31T09:54:47;15.00;71.10
610;DHT22;292;48.800;9.216;2023-10-31T09:57:15;15.00;70.50
610;DHT22;292;48.800;9.216;2023-10-31T09:59:43;15.00;69.30
610;DHT22;292;48.800;9.216;2023-10-31T10:02:10;15.10;69.00
610;DHT22;292;48.800;9.216;2023-10-31T10:04:37;15.10;68.70
610;DHT22;292;48.800;9.216;2023-10-31T10:07:06;15.10;68.70
610;DHT22;292;48.800;9.216;2023-10-31T10:09:33;15.20;68.50
610;DHT22;292;48.800;9.216;2023-10-31T10:12:01;15.20;68.30
610;DHT22;292;48.800;9.216;2023-10-31T10:14:28;15.20;68.30
610;DHT22;292;48.800;9.216;2023-10-31T10:16:57;15.20;68.50
610;DHT22;292;48.800;9.216;2023-10-31T10:19:24;15.20;68.20
610;DHT22;292;48.800;9.216;2023-10-31T10:21:52;15.10;68.30
610;DHT22;292;48.800;9.216;2023-10-31T10:24:22;15.00;68.00
610;DHT22;292;48.800;9.216;2023-10-31T10:26:50;14.90;68.20
610;DHT22;292;48.800;9.216;2023-10-31T10:29:17;14.90;68.60
610;DHT22;292;48.800;9.216;2023-10-31T10:31:46;14.80;68.90
610;DHT22;292;48.800;9.216;2023-10-31T10:34:15;14.70;69.50
610;DHT22;292;48.800;9.216;2023-10-31T10:36:46;14.70;69.50
610;DHT22;292;48.800;9.216;2023-10-31T10:39:18;14.60;69.60
610;DHT22;292;48.800;9.216;2023-10-31T10:41:52;14.60;69.90
610;DHT22;292;48.800;9.216;2023-10-31T10:44:31;14.50;70.30
610;DHT22;292;48.800;9.216;2023-10-31T10:47:01;14.40;70.80
610;DHT22;292;48.800;9.216;2023-10-31T10:49:29;14.40;71.20
610;DHT22;292;48.800;9.216;2023-10-31T10:51:59;14.30;71.60
610;DHT22;292;48.800;9.216;2023-10-31T10:54:32;14.30;71.90
610;DHT22;292;48.800;9.216;2023-10-31T10:57:09;14.30;72.20
610;DHT22;292;48.800;9.216;2023-10-31T10:59:42;14.20;72.40
610;DHT22;292;48.800;9.216;2023-10-31T11:02:11;14.20;72.60
610;DHT22;292;48.800;9.216;2023-10-31T11:04:42;14.20;72.80
610;DHT22;292;48.800;9.216;2023-10-31T11:07:09;14.30;72.80
610;DHT22;292;48.800;9.216;2023-10-31T11:09:37;14.30;72.60
610;DHT22;292;48.800;9.216;2023-10-31T11:12:08;14.40;72.60
610;DHT22;292;48.800;9.216;2023-10-31T11:14:35;14.40;72.50
610;DHT22;292;48.800;9.216;2023-10-31T11:17:15;14.40;72.50
610;DHT22;292;48.800;9.216;2023-10-31T11:19:46;14.50;72.20
610;DHT22;292;48.800;9.216;2023-10-31T11:22:13;14.50;71.90
610;DHT22;292;48.800;9.216;2023-10-31T11:24:42;14.60;71.80
610;DHT22;292;48.800;9.216;2023-10-31T11:27:10;14.60;71.60
610;DHT22;292;48.800;9.216;2023-10-31T11:29:37;14.60;71.60
610;DHT22;292;48.800;9.216;2023-10-31T11:32:08;14.70;71.30
610;DHT22;292;48.800;9.216;2023-10-31T11:34:36;14.60;71.20
610;DHT22;292;48.800;9.216;2023-10-31T11:37:23;14.60;71.20
610;DHT22;292;48.800;9.216;2023-10-31T11:40:16;14.60;71.20
610;DHT22;292;48.800;9.216;2023-10-31T11:42:47;14.60;71.50
610;DHT22;292;48.800;9.216;2023-10-31T11:45:25;14.60;71.50
610;DHT22;292;48.800;9.216;2023-10-31T11:47:53;14.70;71.60
610;DHT22;292;48.800;9.216;2023-10-31T11:50:21;14.70;71.60
610;DHT22;292;48.800;9.216;2023-10-31T11:53:03;14.70;71.50
610;DHT22;292;48.800;9.216;2023-10-31T11:55:33;14.80;71.30
610;DHT22;292;48.800;9.216;2023-10-31T11:58:16;14.80;71.20
610;DHT22;292;48.800;9.216;2023-10-31T12:00:44;14.80;71.10
610;DHT22;292;48.800;9.216;2023-10-31T12:03:12;14.90;70.90
610;DHT22;292;48.800;9.216;2023-10-31T12:05:39;14.90;70.90
610;DHT22;292;48.800;9.216;2023-10-31T12:08:06;14.90;71.10
610;DHT22;292;48.800;9.216;2023-10-31T12:10:33;15.00;70.90
610;DHT22;292;48.800;9.216;2023-10-31T12:13:00;15.00;70.60
610;DHT22;292;48.800;9.216;2023-10-31T12:15:29;15.00;70.60
610;DHT22;292;48.800;9.216;2023-10-31T12:17:59;15.10;70.60
610;DHT22;292;48.800;9.216;2023-10-31T12:20:26;15.10;70.60
610;DHT22;292;48.800;9.216;2023-10-31T12:23:03;15.20;70.60
610;DHT22;292;48.800;9.216;2023-10-31T12:25:31;15.30;70.30
610;DHT22;292;48.800;9.216;2023-10-31T12:28:00;15.30;70.00
610;DHT22;292;48.800;9.216;2023-10-31T12:30:29;15.30;69.50
610;DHT22;292;48.800;9.216;2023-10-31T12:32:56;15.40;69.30
610;DHT22;292;48.800;9.216;2023-10-31T12:35:24;15.40;69.30
610;DHT22;292;48.800;9.216;2023-10-31T12:37:52;15.30;69.20
610;DHT22;292;48.800;9.216;2023-10-31T12:40:22;15.40;69.20
610;DHT22;292;48.800;9.216;2023-10-31T12:42:49;15.40;69.00
610;DHT22;292;48.800;9.216;2023-10-31T12:45:18;15.40;68.90
610;DHT22;292;48.800;9.216;2023-10-31T12:48:00;15.40;68.90
610;DHT22;292;48.800;9.216;2023-10-31T12:50:28;15.40;68.70
610;DHT22;292;48.800;9.216;2023-10-31T12:52:56;15.40;69.00
610;DHT22;292;48.800;9.216;2023-10-31T12:55:27;15.40;69.30
610;DHT22;292;48.800;9.216;2023-10-31T12:57:54;15.30;69.60
610;DHT22;292;48.800;9.216;2023-10-31T13:00:25;15.30;69.80
610;DHT22;292;48.800;9.216;2023-10-31T13:03:01;15.30;69.90
610;DHT22;292;48.800;9.216;2023-10-31T13:05:29;15.30;70.00
610;DHT22;292;48.800;9.216;2023-10-31T13:07:58;15.20;70.20
610;DHT22;292;48.800;9.216;2023-10-31T13:10:27;15.20;70.50
610;DHT22;292;48.800;9.216;2023-10-31T13:12:54;15.20;70.80
610;DHT22;292;48.800;9.216;2023-10-31T13:15:23;15.30;71.10
610;DHT22;292;48.800;9.216;2023-10-31T13:17:51;15.20;71.30
610;DHT22;292;48.800;9.216;2023-10-31T13:20:21;15.30;71.30
610;DHT22;292;48.800;9.216;2023-10-31T13:22:48;15.30;71.50
610;DHT22;292;48.800;9.216;2023-10-31T13:25:16;15.30;71.50
610;DHT22;292;48.800;9.216;2023-10-31T13:27:44;15.30;71.80
610;DHT22;292;48.800;9.216;2023-10-31T13:30:16;15.40;71.90
610;DHT22;292;48.800;9.216;2023-10-31T13:32:44;15.40;72.20
610;DHT22;292;48.800;9.216;2023-10-31T13:35:11;15.40;72.20
610;DHT22;292;48.800;9.216;2023-10-31T13:37:42;15.40;71.90
610;DHT22;292;48.800;9.216;2023-10-31T13:40:09;15.40;71.80
610;DHT22;292;48.800;9.216;2023-10-31T13:42:37;15.40;71.60
610;DHT22;292;48.800;9.216;2023-10-31T13:45:04;15.50;71.50
610;DHT22;292;48.800;9.216;2023-10-31T13:47:31;15.50;71.50
610;DHT22;292;48.800;9.216;2023-10-31T13:49:59;15.50;70.90
610;DHT22;292;48.800;9.216;2023-10-31T13:52:26;15.50;70.50
610;DHT22;292;48.800;9.216;2023-10-31T13:54:54;15.50;70.50
610;DHT22;292;48.800;9.216;2023-10-31T13:57:21;15.50;70.30
610;DHT22;292;48.800;9.216;2023-10-31T13:59:50;15.60;70.30
610;DHT22;292;48.800;9.216;2023-10-31T14:02:17;15.60;70.30
610;DHT22;292;48.800;9.216;2023-10-31T14:04:44;15.60;70.50
610;DHT22;292;48.800;9.216;2023-10-31T14:07:16;15.60;70.30
610;DHT22;292;48.800;9.216;2023-10-31T14:09:46;15.60;70.30
610;DHT22;292;48.800;9.216;2023-10-31T14:12:15;15.70;70.30
610;DHT22;292;48.800;9.216;2023-10-31T14:14:42;15.70;70.20
610;DHT22;292;48.800;9.216;2023-10-31T14:17:09;15.60;70.20
610;DHT22;292;48.800;9.216;2023-10-31T14:19:37;15.60;70.30
610;DHT22;292;48.800;9.216;2023-10-31T14:22:04;15.60;70.30
610;DHT22;292;48.800;9.216;2023-10-31T14:24:32;15.60;70.30
610;DHT22;292;48.800;9.216;2023-10-31T14:27:00;15.60;70.30
610;DHT22;292;48.800;9.216;2023-10-31T14:29:28;15.60;70.30
610;DHT22;292;48.800;9.216;2023-10-31T14:31:55;15.60;70.30
610;DHT22;292;48.800;9.216;2023-10-31T14:34:23;15.60;70.50
610;DHT22;292;48.800;9.216;2023-10-31T14:36:50;15.60;70.30
610;DHT22;292;48.800;9.216;2023-10-31T14:39:19;15.60;70.20
610;DHT22;292;48.800;9.216;2023-10-31T14:41:46;15.60;70.20
610;DHT22;292;48.800;9.216;2023-10-31T14:44:13;15.60;70.20
610;DHT22;292;48.800;9.216;2023-10-31T14:46:41;15.60;70.30
610;DHT22;292;48.800;9.216;2023-10-31T14:49:08;15.60;70.80
610;DHT22;292;48.800;9.216;2023-10-31T14:51:36;15.60;71.60
610;DHT22;292;48.800;9.216;2023-10-31T14:54:04;15.50;72.10
610;DHT22;292;48.800;9.216;2023-10-31T14:56:31;15.40;72.80
610;DHT22;292;48.800;9.216;2023-10-31T14:58:59;15.50;73.10
610;DHT22;292;48.800;9.216;2023-10-31T15:01:29;15.40;73.20
610;DHT22;292;48.800;9.216;2023-10-31T15:03:57;15.40;73.50
610;DHT22;292;48.800;9.216;2023-10-31T15:06:24;15.40;73.70
610;DHT22;292;48.800;9.216;2023-10-31T15:08:51;15.40;73.50
610;DHT22;292;48.800;9.216;2023-10-31T15:11:18;15.40;73.20
610;DHT22;292;48.800;9.216;2023-10-31T15:13:45;15.40;73.50
610;DHT22;292;48.800;9.216;2023-10-31T15:16:12;15.40;73.50
610;DHT22;292;48.800;9.216;2023-10-31T15:18:39;15.40;72.90
610;DHT22;292;48.800;9.216;2023-10-31T15:21:08;15.30;71.80
610;DHT22;292;48.800;9.216;2023-10-31T15:23:35;15.30;71.30
610;DHT22;292;48.800;9.216;2023-10-31T15:26:03;15.20;71.20
610;DHT22;292;48.800;9.216;2023-10-31T15:28:30;15.20;71.10
610;DHT22;292;48.800;9.216;2023-10-31T15:30:57;15.10;71.30
610;DHT22;292;48.800;9.216;2023-10-31T15:33:24;15.10;71.50
610;DHT22;292;48.800;9.216;2023-10-31T15:35:51;15.10;71.90
610;DHT22;292;48.800;9.216;2023-10-31T15:38:19;15.00;72.10
610;DHT22;292;48.800;9.216;2023-10-31T15:40:46;15.00;72.40
610;DHT22;292;48.800;9.216;2023-10-31T15:43:13;15.00;72.80
610;DHT22;292;48.800;9.216;2023-10-31T15:45:40;15.00;73.40
610;DHT22;292;48.800;9.216;2023-10-31T15:48:07;15.00;73.20
610;DHT22;292;48.800;9.216;2023-10-31T15:50:35;15.00;73.40
610;DHT22;292;48.800;9.216;2023-10-31T15:53:02;15.00;73.50
610;DHT22;292;48.800;9.216;2023-10-31T15:55:31;15.00;73.50
610;DHT22;292;48.800;9.216;2023-10-31T15:57:58;15.00;73.70
610;DHT22;292;48.800;9.216;2023-10-31T16:00:24;15.00;73.80
610;DHT22;292;48.800;9.216;2023-10-31T16:02:52;15.00;74.40
610;DHT22;292;48.800;9.216;2023-10-31T16:05:20;15.00;74.70
610;DHT22;292;48.800;9.216;2023-10-31T16:07:48;15.00;74.80
610;DHT22;292;48.800;9.216;2023-10-31T16:10:16;15.00;74.80
610;DHT22;292;48.800;9.216;2023-10-31T16:12:44;15.00;75.10
610;DHT22;292;48.800;9.216;2023-10-31T16:15:11;15.00;75.20
610;DHT22;292;48.800;9.216;2023-10-31T16:17:38;15.00;75.40
610;DHT22;292;48.800;9.216;2023-10-31T16:20:06;15.00;75.70
610;DHT22;292;48.800;9.216;2023-10-31T16:22:33;15.00;75.80
610;DHT22;292;48.800;9.216;2023-10-31T16:25:00;14.90;76.00
610;DHT22;292;48.800;9.216;2023-10-31T16:27:28;14.90;75.80
610;DHT22;292;48.800;9.216;2023-10-31T16:29:57;14.90;75.70
610;DHT22;292;48.800;9.216;2023-10-31T16:32:24;14.90;75.70
610;DHT22;292;48.800;9.216;2023-10-31T16:34:51;14.80;75.70
610;DHT22;292;48.800;9.216;2023-10-31T16:37:20;14.80;75.70
610;DHT22;292;48.800;9.216;2023-10-31T16:39:47;14.70;75.70